sensor_id;sensor_type;location;lat;lon;timestamp;P1;durP1;ratioP1;P2;durP2;ratioP2
4794;SDS011;2411;47.060;15.064;2023-07-20T00:01:52;5.23;;;3.00;;
4794;SDS011;2411;47.060;15.064;2023-07-20T00:04:20;3.60;;;3.00;;
4794;SDS011;2411;47.060;15.064;2023-07-20T00:06:47;7.40;;;2.77;;
4794;SDS011;2411;47.060;15.064;2023-07-20T00:09:14;3.37;;;3.03;;
4794;SDS011;2411;47.060;15.064;2023-07-20T00:11:48;4.50;;;2.93;;
4794;SDS011;2411;47.060;15.064;2023-07-20T00:14:19;8.47;;;3.30;;
4794;SDS011;2411;47.060;15.064;2023-07-20T00:16:46;9.17;;;3.53;;
4794;SDS011;2411;47.060;15.064;2023-07-20T00:19:15;4.47;;;2.90;;
4794;SDS011;2411;47.060;15.064;2023-07-20T00:21:43;8.53;;;3.30;;
4794;SDS011;2411;47.060;15.064;2023-07-20T00:24:10;6.13;;;3.53;;
4794;SDS011;2411;47.060;15.064;2023-07-20T00:26:37;4.83;;;3.60;;
4794;SDS011;2411;47.060;15.064;2023-07-20T00:29:05;7.13;;;3.40;;
4794;SDS011;2411;47.060;15.064;2023-07-20T00:31:32;6.27;;;3.80;;
4794;SDS011;2411;47.060;15.064;2023-07-20T00:34:01;4.57;;;2.60;;
4794;SDS011;2411;47.060;15.064;2023-07-20T00:36:29;3.60;;;3.30;;
4794;SDS011;2411;47.060;15.064;2023-07-20T00:38:56;3.80;;;3.47;;
4794;SDS011;2411;47.060;15.064;2023-07-20T00:41:23;4.23;;;2.90;;
4794;SDS011;2411;47.060;15.064;2023-07-20T00:43:51;4.67;;;3.57;;
4794;SDS011;2411;47.060;15.064;2023-07-20T00:46:18;3.50;;;2.80;;
4794;SDS011;2411;47.060;15.064;2023-07-20T00:48:49;4.73;;;3.50;;
4794;SDS011;2411;47.060;15.064;2023-07-20T00:51:16;4.87;;;3.70;;
4794;SDS011;2411;47.060;15.064;2023-07-20T00:53:43;3.90;;;3.47;;
4794;SDS011;2411;47.060;15.064;2023-07-20T00:56:11;6.10;;;3.13;;
4794;SDS011;2411;47.060;15.064;2023-07-20T00:58:38;5.13;;;3.83;;
4794;SDS011;2411;47.060;15.064;2023-07-20T01:01:06;8.10;;;3.10;;
4794;SDS011;2411;47.060;15.064;2023-07-20T01:03:35;7.50;;;3.27;;
4794;SDS011;2411;47.060;15.064;2023-07-20T01:06:15;4.87;;;3.30;;
4794;SDS011;2411;47.060;15.064;2023-07-20T01:14:18;3.33;;;3.03;;
4794;SDS011;2411;47.060;15.064;2023-07-20T01:16:46;9.93;;;3.30;;
4794;SDS011;2411;47.060;15.064;2023-07-20T01:19:16;4.03;;;2.23;;
4794;SDS011;2411;47.060;15.064;2023-07-20T01:22:34;4.50;;;3.20;;
4794;SDS011;2411;47.060;15.064;2023-07-20T01:27:31;3.03;;;2.83;;
4794;SDS011;2411;47.060;15.064;2023-07-20T01:30:16;3.33;;;3.03;;
4794;SDS011;2411;47.060;15.064;2023-07-20T01:33:02;3.27;;;3.00;;
4794;SDS011;2411;47.060;15.064;2023-07-20T01:35:30;3.33;;;3.03;;
4794;SDS011;2411;47.060;15.064;2023-07-20T01:37:59;3.97;;;2.83;;
4794;SDS011;2411;47.060;15.064;2023-07-20T01:40:26;5.27;;;2.87;;
4794;SDS011;2411;47.060;15.064;2023-07-20T01:42:54;2.93;;;2.70;;
4794;SDS011;2411;47.060;15.064;2023-07-20T01:45:21;3.27;;;2.63;;
4794;SDS011;2411;47.060;15.064;2023-07-20T01:47:49;2.60;;;2.50;;
4794;SDS011;2411;47.060;15.064;2023-07-20T01:50:16;11.23;;;2.87;;
4794;SDS011;2411;47.060;15.064;2023-07-20T01:52:43;4.00;;;2.77;;
4794;SDS011;2411;47.060;15.064;2023-07-20T01:55:10;2.47;;;2.23;;
4794;SDS011;2411;47.060;15.064;2023-07-20T01:57:38;2.93;;;2.70;;
4794;SDS011;2411;47.060;15.064;2023-07-20T02:00:05;3.17;;;2.87;;
4794;SDS011;2411;47.060;15.064;2023-07-20T02:02:33;3.70;;;3.10;;
4794;SDS011;2411;47.060;15.064;2023-07-20T02:05:00;4.30;;;2.73;;
4794;SDS011;2411;47.060;15.064;2023-07-20T02:07:28;4.10;;;3.00;;
4794;SDS011;2411;47.060;15.064;2023-07-20T02:09:55;2.60;;;2.40;;
4794;SDS011;2411;47.060;15.064;2023-07-20T02:12:22;5.43;;;3.07;;
4794;SDS011;2411;47.060;15.064;2023-07-20T02:14:49;2.70;;;2.50;;
4794;SDS011;2411;47.060;15.064;2023-07-20T02:17:17;2.90;;;2.70;;
4794;SDS011;2411;47.060;15.064;2023-07-20T02:19:45;3.90;;;3.20;;
4794;SDS011;2411;47.060;15.064;2023-07-20T02:22:12;3.90;;;2.77;;
4794;SDS011;2411;47.060;15.064;2023-07-20T02:24:39;7.03;;;3.03;;
4794;SDS011;2411;47.060;15.064;2023-07-20T02:27:07;3.00;;;2.80;;
4794;SDS011;2411;47.060;15.064;2023-07-20T02:29:34;3.43;;;2.87;;
4794;SDS011;2411;47.060;15.064;2023-07-20T02:32:02;4.93;;;2.80;;
4794;SDS011;2411;47.060;15.064;2023-07-20T02:34:30;4.20;;;2.30;;
4794;SDS011;2411;47.060;15.064;2023-07-20T02:36:57;2.97;;;2.60;;
4794;SDS011;2411;47.060;15.064;2023-07-20T02:39:27;4.60;;;3.07;;
4794;SDS011;2411;47.060;15.064;2023-07-20T02:41:55;7.30;;;2.70;;
4794;SDS011;2411;47.060;15.064;2023-07-20T02:44:22;12.20;;;3.20;;
4794;SDS011;2411;47.060;15.064;2023-07-20T02:46:49;4.60;;;3.00;;
4794;SDS011;2411;47.060;15.064;2023-07-20T02:49:17;8.73;;;2.97;;
4794;SDS011;2411;47.060;15.064;2023-07-20T02:51:44;3.47;;;3.17;;
4794;SDS011;2411;47.060;15.064;2023-07-20T02:54:12;3.60;;;2.93;;
4794;SDS011;2411;47.060;15.064;2023-07-20T02:56:40;3.03;;;2.83;;
4794;SDS011;2411;47.060;15.064;2023-07-20T02:59:07;3.20;;;2.50;;
4794;SDS011;2411;47.060;15.064;2023-07-20T03:01:35;6.20;;;3.40;;
4794;SDS011;2411;47.060;15.064;2023-07-20T03:04:02;3.10;;;2.67;;
4794;SDS011;2411;47.060;15.064;2023-07-20T03:06:30;3.60;;;2.87;;
4794;SDS011;2411;47.060;15.064;2023-07-20T03:08:58;9.23;;;2.93;;
4794;SDS011;2411;47.060;15.064;2023-07-20T03:11:25;3.17;;;2.87;;
4794;SDS011;2411;47.060;15.064;2023-07-20T03:13:52;2.60;;;2.40;;
4794;SDS011;2411;47.060;15.064;2023-07-20T03:16:20;2.90;;;2.60;;
4794;SDS011;2411;47.060;15.064;2023-07-20T03:18:48;2.73;;;2.53;;
4794;SDS011;2411;47.060;15.064;2023-07-20T03:21:15;3.40;;;2.97;;
4794;SDS011;2411;47.060;15.064;2023-07-20T03:23:43;3.53;;;2.37;;
4794;SDS011;2411;47.060;15.064;2023-07-20T03:26:10;7.53;;;2.60;;
4794;SDS011;2411;47.060;15.064;2023-07-20T03:28:37;6.67;;;3.23;;
4794;SDS011;2411;47.060;15.064;2023-07-20T03:31:05;10.43;;;2.80;;
4794;SDS011;2411;47.060;15.064;2023-07-20T03:33:33;5.30;;;3.40;;
4794;SDS011;2411;47.060;15.064;2023-07-20T03:36:01;3.30;;;2.73;;
4794;SDS011;2411;47.060;15.064;2023-07-20T03:38:28;3.00;;;2.80;;
4794;SDS011;2411;47.060;15.064;2023-07-20T03:40:56;4.20;;;3.20;;
4794;SDS011;2411;47.060;15.064;2023-07-20T03:43:26;3.03;;;2.77;;
4794;SDS011;2411;47.060;15.064;2023-07-20T03:45:54;5.43;;;2.90;;
4794;SDS011;2411;47.060;15.064;2023-07-20T03:48:22;3.37;;;2.70;;
4794;SDS011;2411;47.060;15.064;2023-07-20T03:50:50;3.47;;;3.17;;
4794;SDS011;2411;47.060;15.064;2023-07-20T03:53:18;3.03;;;2.73;;
4794;SDS011;2411;47.060;15.064;2023-07-20T03:55:47;2.90;;;2.50;;
4794;SDS011;2411;47.060;15.064;2023-07-20T03:58:17;5.00;;;3.57;;
4794;SDS011;2411;47.060;15.064;2023-07-20T04:00:49;3.93;;;2.40;;
4794;SDS011;2411;47.060;15.064;2023-07-20T04:03:20;6.03;;;3.50;;
4794;SDS011;2411;47.060;15.064;2023-07-20T04:05:49;3.43;;;3.13;;
4794;SDS011;2411;47.060;15.064;2023-07-20T04:08:17;4.33;;;3.50;;
4794;SDS011;2411;47.060;15.064;2023-07-20T04:10:44;4.30;;;3.90;;
4794;SDS011;2411;47.060;15.064;2023-07-20T04:13:12;4.70;;;3.93;;
4794;SDS011;2411;47.060;15.064;2023-07-20T04:15:39;3.77;;;3.50;;
4794;SDS011;2411;47.060;15.064;2023-07-20T04:18:06;11.70;;;3.47;;
4794;SDS011;2411;47.060;15.064;2023-07-20T04:20:33;7.40;;;4.40;;
4794;SDS011;2411;47.060;15.064;2023-07-20T04:23:01;6.17;;;4.10;;
4794;SDS011;2411;47.060;15.064;2023-07-20T04:25:28;3.90;;;3.50;;
4794;SDS011;2411;47.060;15.064;2023-07-20T04:27:55;4.30;;;2.53;;
4794;SDS011;2411;47.060;15.064;2023-07-20T04:30:23;3.27;;;2.87;;
4794;SDS011;2411;47.060;15.064;2023-07-20T04:32:50;5.90;;;3.60;;
4794;SDS011;2411;47.060;15.064;2023-07-20T04:35:18;9.83;;;3.47;;
4794;SDS011;2411;47.060;15.064;2023-07-20T04:38:05;6.60;;;3.30;;
4794;SDS011;2411;47.060;15.064;2023-07-20T04:40:32;4.13;;;3.17;;
4794;SDS011;2411;47.060;15.064;2023-07-20T04:42:59;7.83;;;3.47;;
4794;SDS011;2411;47.060;15.064;2023-07-20T04:45:27;7.33;;;3.13;;
4794;SDS011;2411;47.060;15.064;2023-07-20T04:47:54;6.67;;;3.07;;
4794;SDS011;2411;47.060;15.064;2023-07-20T04:50:21;3.33;;;2.93;;
4794;SDS011;2411;47.060;15.064;2023-07-20T04:52:50;3.77;;;2.93;;
4794;SDS011;2411;47.060;15.064;2023-07-20T04:55:18;4.90;;;2.90;;
4794;SDS011;2411;47.060;15.064;2023-07-20T04:57:46;6.17;;;3.10;;
4794;SDS011;2411;47.060;15.064;2023-07-20T05:00:13;6.20;;;3.40;;
4794;SDS011;2411;47.060;15.064;2023-07-20T05:02:41;8.27;;;3.20;;
4794;SDS011;2411;47.060;15.064;2023-07-20T05:05:08;4.63;;;3.13;;
4794;SDS011;2411;47.060;15.064;2023-07-20T05:07:35;4.20;;;2.90;;
4794;SDS011;2411;47.060;15.064;2023-07-20T05:10:03;3.43;;;3.03;;
4794;SDS011;2411;47.060;15.064;2023-07-20T05:12:30;5.77;;;3.23;;
4794;SDS011;2411;47.060;15.064;2023-07-20T05:14:57;6.03;;;2.70;;
4794;SDS011;2411;47.060;15.064;2023-07-20T05:17:24;11.03;;;2.47;;
4794;SDS011;2411;47.060;15.064;2023-07-20T05:19:52;3.87;;;2.77;;
4794;SDS011;2411;47.060;15.064;2023-07-20T05:22:19;4.27;;;3.07;;
4794;SDS011;2411;47.060;15.064;2023-07-20T05:24:46;3.10;;;2.80;;
4794;SDS011;2411;47.060;15.064;2023-07-20T05:27:13;4.63;;;2.37;;
4794;SDS011;2411;47.060;15.064;2023-07-20T05:29:47;3.40;;;3.10;;
4794;SDS011;2411;47.060;15.064;2023-07-20T05:32:14;3.10;;;2.80;;
4794;SDS011;2411;47.060;15.064;2023-07-20T05:34:41;3.73;;;2.90;;
4794;SDS011;2411;47.060;15.064;2023-07-20T05:37:11;4.73;;;3.27;;
4794;SDS011;2411;47.060;15.064;2023-07-20T05:39:40;6.20;;;3.30;;
4794;SDS011;2411;47.060;15.064;2023-07-20T05:42:08;5.57;;;3.00;;
4794;SDS011;2411;47.060;15.064;2023-07-20T05:44:35;12.80;;;3.42;;
4794;SDS011;2411;47.060;15.064;2023-07-20T05:47:04;10.57;;;3.93;;
4794;SDS011;2411;47.060;15.064;2023-07-20T05:49:32;3.53;;;3.23;;
4794;SDS011;2411;47.060;15.064;2023-07-20T05:51:59;12.23;;;3.60;;
4794;SDS011;2411;47.060;15.064;2023-07-20T05:54:27;8.70;;;3.27;;
4794;SDS011;2411;47.060;15.064;2023-07-20T05:56:55;18.50;;;4.10;;
4794;SDS011;2411;47.060;15.064;2023-07-20T05:59:22;11.70;;;3.97;;
4794;SDS011;2411;47.060;15.064;2023-07-20T06:01:51;11.67;;;4.33;;
4794;SDS011;2411;47.060;15.064;2023-07-20T06:04:18;17.47;;;4.60;;
4794;SDS011;2411;47.060;15.064;2023-07-20T06:06:45;16.53;;;3.63;;
4794;SDS011;2411;47.060;15.064;2023-07-20T06:09:13;5.83;;;3.50;;
4794;SDS011;2411;47.060;15.064;2023-07-20T06:11:40;4.70;;;3.77;;
4794;SDS011;2411;47.060;15.064;2023-07-20T06:14:07;7.13;;;3.27;;
4794;SDS011;2411;47.060;15.064;2023-07-20T06:16:35;4.63;;;3.07;;
4794;SDS011;2411;47.060;15.064;2023-07-20T06:19:02;5.87;;;3.27;;
4794;SDS011;2411;47.060;15.064;2023-07-20T06:21:29;5.37;;;3.90;;
4794;SDS011;2411;47.060;15.064;2023-07-20T06:23:56;4.70;;;2.97;;
4794;SDS011;2411;47.060;15.064;2023-07-20T06:26:25;3.40;;;3.07;;
4794;SDS011;2411;47.060;15.064;2023-07-20T06:28:52;4.23;;;3.43;;
4794;SDS011;2411;47.060;15.064;2023-07-20T06:31:20;5.50;;;2.80;;
4794;SDS011;2411;47.060;15.064;2023-07-20T06:33:47;3.10;;;2.80;;
4794;SDS011;2411;47.060;15.064;2023-07-20T06:36:18;4.27;;;3.33;;
4794;SDS011;2411;47.060;15.064;2023-07-20T06:38:45;5.33;;;3.50;;
4794;SDS011;2411;47.060;15.064;2023-07-20T06:41:15;9.90;;;3.50;;
4794;SDS011;2411;47.060;15.064;2023-07-20T06:43:45;6.00;;;3.50;;
4794;SDS011;2411;47.060;15.064;2023-07-20T06:46:14;6.60;;;3.27;;
4794;SDS011;2411;47.060;15.064;2023-07-20T06:48:42;9.93;;;3.63;;
4794;SDS011;2411;47.060;15.064;2023-07-20T06:51:12;4.03;;;3.63;;
4794;SDS011;2411;47.060;15.064;2023-07-20T06:53:39;4.43;;;2.90;;
4794;SDS011;2411;47.060;15.064;2023-07-20T06:56:06;4.17;;;3.00;;
4794;SDS011;2411;47.060;15.064;2023-07-20T06:58:33;4.30;;;3.17;;
4794;SDS011;2411;47.060;15.064;2023-07-20T07:01:08;4.50;;;3.57;;
4794;SDS011;2411;47.060;15.064;2023-07-20T07:03:35;3.53;;;3.20;;
4794;SDS011;2411;47.060;15.064;2023-07-20T07:06:03;5.87;;;4.13;;
4794;SDS011;2411;47.060;15.064;2023-07-20T07:08:31;13.50;;;4.37;;
4794;SDS011;2411;47.060;15.064;2023-07-20T07:10:58;10.67;;;4.63;;
4794;SDS011;2411;47.060;15.064;2023-07-20T07:13:25;19.70;;;4.97;;
4794;SDS011;2411;47.060;15.064;2023-07-20T07:15:53;13.43;;;4.00;;
4794;SDS011;2411;47.060;15.064;2023-07-20T07:18:20;8.80;;;3.50;;
4794;SDS011;2411;47.060;15.064;2023-07-20T07:20:51;12.10;;;4.00;;
4794;SDS011;2411;47.060;15.064;2023-07-20T07:23:19;9.87;;;4.20;;
4794;SDS011;2411;47.060;15.064;2023-07-20T07:25:47;11.40;;;4.80;;
4794;SDS011;2411;47.060;15.064;2023-07-20T07:28:15;12.33;;;3.70;;
4794;SDS011;2411;47.060;15.064;2023-07-20T07:30:42;14.90;;;3.97;;
4794;SDS011;2411;47.060;15.064;2023-07-20T07:33:09;13.90;;;4.00;;
4794;SDS011;2411;47.060;15.064;2023-07-20T07:35:37;9.47;;;3.43;;
4794;SDS011;2411;47.060;15.064;2023-07-20T07:38:05;9.47;;;3.70;;
4794;SDS011;2411;47.060;15.064;2023-07-20T07:40:53;12.17;;;4.67;;
4794;SDS011;2411;47.060;15.064;2023-07-20T07:43:20;15.83;;;4.20;;
4794;SDS011;2411;47.060;15.064;2023-07-20T07:45:47;10.20;;;4.10;;
4794;SDS011;2411;47.060;15.064;2023-07-20T07:48:15;4.77;;;3.40;;
4794;SDS011;2411;47.060;15.064;2023-07-20T07:50:42;8.77;;;3.87;;
4794;SDS011;2411;47.060;15.064;2023-07-20T07:53:11;12.60;;;3.80;;
4794;SDS011;2411;47.060;15.064;2023-07-20T07:55:38;11.03;;;3.60;;
4794;SDS011;2411;47.060;15.064;2023-07-20T07:58:06;42.20;;;5.20;;
4794;SDS011;2411;47.060;15.064;2023-07-20T08:00:33;5.90;;;3.40;;
4794;SDS011;2411;47.060;15.064;2023-07-20T08:03:00;5.43;;;3.40;;
4794;SDS011;2411;47.060;15.064;2023-07-20T08:05:28;3.50;;;3.20;;
4794;SDS011;2411;47.060;15.064;2023-07-20T08:07:55;6.00;;;3.47;;
4794;SDS011;2411;47.060;15.064;2023-07-20T08:10:22;5.20;;;2.87;;
4794;SDS011;2411;47.060;15.064;2023-07-20T08:12:50;3.53;;;3.00;;
4794;SDS011;2411;47.060;15.064;2023-07-20T08:15:17;3.57;;;2.80;;
4794;SDS011;2411;47.060;15.064;2023-07-20T08:17:45;8.60;;;2.73;;
4794;SDS011;2411;47.060;15.064;2023-07-20T08:20:12;5.80;;;3.13;;
4794;SDS011;2411;47.060;15.064;2023-07-20T08:22:40;4.47;;;2.83;;
4794;SDS011;2411;47.060;15.064;2023-07-20T08:25:07;4.03;;;3.00;;
4794;SDS011;2411;47.060;15.064;2023-07-20T08:27:36;3.07;;;2.80;;
4794;SDS011;2411;47.060;15.064;2023-07-20T08:30:04;4.77;;;2.93;;
4794;SDS011;2411;47.060;15.064;2023-07-20T08:32:32;4.33;;;3.57;;
4794;SDS011;2411;47.060;15.064;2023-07-20T08:34:59;3.93;;;2.90;;
4794;SDS011;2411;47.060;15.064;2023-07-20T08:37:27;3.20;;;2.90;;
4794;SDS011;2411;47.060;15.064;2023-07-20T08:39:54;3.00;;;2.60;;
4794;SDS011;2411;47.060;15.064;2023-07-20T08:42:21;9.60;;;4.60;;
4794;SDS011;2411;47.060;15.064;2023-07-20T08:44:49;5.20;;;3.10;;
4794;SDS011;2411;47.060;15.064;2023-07-20T08:47:19;3.70;;;2.57;;
4794;SDS011;2411;47.060;15.064;2023-07-20T08:49:48;5.50;;;2.93;;
4794;SDS011;2411;47.060;15.064;2023-07-20T08:52:16;3.00;;;2.43;;
4794;SDS011;2411;47.060;15.064;2023-07-20T08:54:43;2.73;;;2.53;;
4794;SDS011;2411;47.060;15.064;2023-07-20T08:57:10;2.50;;;2.30;;
4794;SDS011;2411;47.060;15.064;2023-07-20T08:59:41;4.50;;;3.10;;
4794;SDS011;2411;47.060;15.064;2023-07-20T09:02:09;3.47;;;2.80;;
4794;SDS011;2411;47.060;15.064;2023-07-20T09:04:45;6.57;;;2.87;;
4794;SDS011;2411;47.060;15.064;2023-07-20T09:07:13;4.93;;;2.83;;
4794;SDS011;2411;47.060;15.064;2023-07-20T09:09:41;3.60;;;2.90;;
4794;SDS011;2411;47.060;15.064;2023-07-20T09:12:15;3.10;;;2.90;;
4794;SDS011;2411;47.060;15.064;2023-07-20T09:14:43;3.20;;;2.87;;
4794;SDS011;2411;47.060;15.064;2023-07-20T09:17:14;1.93;;;1.83;;
4794;SDS011;2411;47.060;15.064;2023-07-20T09:19:47;2.67;;;2.47;;
4794;SDS011;2411;47.060;15.064;2023-07-20T09:22:15;4.50;;;2.70;;
4794;SDS011;2411;47.060;15.064;2023-07-20T09:24:44;2.50;;;2.13;;
4794;SDS011;2411;47.060;15.064;2023-07-20T09:27:11;2.30;;;2.20;;
4794;SDS011;2411;47.060;15.064;2023-07-20T09:29:49;2.27;;;2.07;;
4794;SDS011;2411;47.060;15.064;2023-07-20T09:32:18;2.73;;;2.43;;
4794;SDS011;2411;47.060;15.064;2023-07-20T09:34:50;2.70;;;2.50;;
4794;SDS011;2411;47.060;15.064;2023-07-20T09:37:22;2.83;;;2.07;;
4794;SDS011;2411;47.060;15.064;2023-07-20T09:39:53;3.77;;;2.57;;
4794;SDS011;2411;47.060;15.064;2023-07-20T09:42:23;2.53;;;2.33;;
4794;SDS011;2411;47.060;15.064;2023-07-20T09:44:55;3.63;;;2.27;;
4794;SDS011;2411;47.060;15.064;2023-07-20T09:47:23;5.07;;;2.70;;
4794;SDS011;2411;47.060;15.064;2023-07-20T09:49:57;4.73;;;2.00;;
4794;SDS011;2411;47.060;15.064;2023-07-20T09:52:31;2.07;;;1.90;;
4794;SDS011;2411;47.060;15.064;2023-07-20T09:55:02;4.50;;;2.40;;
4794;SDS011;2411;47.060;15.064;2023-07-20T09:57:30;3.57;;;2.73;;
4794;SDS011;2411;47.060;15.064;2023-07-20T10:00:00;4.13;;;2.33;;
4794;SDS011;2411;47.060;15.064;2023-07-20T10:02:32;2.40;;;2.20;;
4794;SDS011;2411;47.060;15.064;2023-07-20T10:05:01;2.67;;;2.47;;
4794;SDS011;2411;47.060;15.064;2023-07-20T10:07:35;2.20;;;2.03;;
4794;SDS011;2411;47.060;15.064;2023-07-20T10:10:07;3.93;;;2.43;;
4794;SDS011;2411;47.060;15.064;2023-07-20T10:12:37;3.33;;;2.80;;
4794;SDS011;2411;47.060;15.064;2023-07-20T10:18:09;3.63;;;2.47;;
4794;SDS011;2411;47.060;15.064;2023-07-20T10:20:41;9.13;;;2.70;;
4794;SDS011;2411;47.060;15.064;2023-07-20T10:23:29;2.60;;;2.40;;
4794;SDS011;2411;47.060;15.064;2023-07-20T10:25:57;3.13;;;2.80;;
4794;SDS011;2411;47.060;15.064;2023-07-20T10:28:26;5.33;;;2.60;;
4794;SDS011;2411;47.060;15.064;2023-07-20T10:30:54;17.70;;;2.90;;
4794;SDS011;2411;47.060;15.064;2023-07-20T10:33:22;4.60;;;2.60;;
4794;SDS011;2411;47.060;15.064;2023-07-20T10:35:51;3.67;;;3.13;;
4794;SDS011;2411;47.060;15.064;2023-07-20T10:41:16;2.93;;;2.63;;
4794;SDS011;2411;47.060;15.064;2023-07-20T10:43:46;5.47;;;2.90;;
4794;SDS011;2411;47.060;15.064;2023-07-20T10:46:15;4.10;;;2.30;;
4794;SDS011;2411;47.060;15.064;2023-07-20T10:49:02;3.80;;;2.70;;
4794;SDS011;2411;47.060;15.064;2023-07-20T10:51:44;3.00;;;2.80;;
4794;SDS011;2411;47.060;15.064;2023-07-20T10:56:44;5.17;;;3.40;;
4794;SDS011;2411;47.060;15.064;2023-07-20T11:01:55;7.30;;;3.10;;
4794;SDS011;2411;47.060;15.064;2023-07-20T11:07:06;4.90;;;3.27;;
4794;SDS011;2411;47.060;15.064;2023-07-20T11:09:35;3.20;;;2.73;;
4794;SDS011;2411;47.060;15.064;2023-07-20T11:12:14;4.33;;;2.80;;
4794;SDS011;2411;47.060;15.064;2023-07-20T11:15:07;3.53;;;3.10;;
4794;SDS011;2411;47.060;15.064;2023-07-20T11:17:30;4.13;;;3.20;;
4794;SDS011;2411;47.060;15.064;2023-07-20T11:19:59;3.33;;;2.90;;
4794;SDS011;2411;47.060;15.064;2023-07-20T11:22:31;2.73;;;2.53;;
4794;SDS011;2411;47.060;15.064;2023-07-20T11:24:58;2.67;;;2.47;;
4794;SDS011;2411;47.060;15.064;2023-07-20T11:27:25;3.43;;;3.00;;
4794;SDS011;2411;47.060;15.064;2023-07-20T11:29:55;3.70;;;3.00;;
4794;SDS011;2411;47.060;15.064;2023-07-20T11:32:23;2.50;;;2.30;;
4794;SDS011;2411;47.060;15.064;2023-07-20T11:34:51;6.73;;;3.23;;
4794;SDS011;2411;47.060;15.064;2023-07-20T11:37:18;3.43;;;2.50;;
4794;SDS011;2411;47.060;15.064;2023-07-20T11:39:46;2.50;;;2.30;;
4794;SDS011;2411;47.060;15.064;2023-07-20T11:42:13;2.60;;;2.40;;
4794;SDS011;2411;47.060;15.064;2023-07-20T11:45:05;1.97;;;1.87;;
4794;SDS011;2411;47.060;15.064;2023-07-20T11:47:33;2.57;;;2.37;;
4794;SDS011;2411;47.060;15.064;2023-07-20T11:50:03;4.10;;;2.40;;
4794;SDS011;2411;47.060;15.064;2023-07-20T11:52:31;2.63;;;2.43;;
4794;SDS011;2411;47.060;15.064;2023-07-20T11:54:59;2.67;;;2.47;;
4794;SDS011;2411;47.060;15.064;2023-07-20T11:57:28;2.47;;;2.00;;
4794;SDS011;2411;47.060;15.064;2023-07-20T11:59:56;7.33;;;2.33;;
4794;SDS011;2411;47.060;15.064;2023-07-20T12:02:26;8.40;;;2.40;;
4794;SDS011;2411;47.060;15.064;2023-07-20T12:04:54;3.50;;;2.87;;
4794;SDS011;2411;47.060;15.064;2023-07-20T12:07:22;2.90;;;2.40;;
4794;SDS011;2411;47.060;15.064;2023-07-20T12:10:09;3.00;;;2.10;;
4794;SDS011;2411;47.060;15.064;2023-07-20T12:12:41;4.17;;;2.07;;
4794;SDS011;2411;47.060;15.064;2023-07-20T12:15:16;3.23;;;2.30;;
4794;SDS011;2411;47.060;15.064;2023-07-20T12:17:51;8.97;;;2.50;;
4794;SDS011;2411;47.060;15.064;2023-07-20T12:20:26;5.70;;;2.97;;
4794;SDS011;2411;47.060;15.064;2023-07-20T12:25:45;4.30;;;2.97;;
4794;SDS011;2411;47.060;15.064;2023-07-20T12:28:17;3.10;;;2.80;;
4794;SDS011;2411;47.060;15.064;2023-07-20T12:30:46;3.30;;;2.90;;
4794;SDS011;2411;47.060;15.064;2023-07-20T12:33:22;3.07;;;2.70;;
4794;SDS011;2411;47.060;15.064;2023-07-20T12:35:50;4.13;;;3.30;;
4794;SDS011;2411;47.060;15.064;2023-07-20T12:38:17;5.27;;;2.40;;
4794;SDS011;2411;47.060;15.064;2023-07-20T12:40:45;3.03;;;2.73;;
4794;SDS011;2411;47.060;15.064;2023-07-20T12:43:12;3.07;;;2.77;;
4794;SDS011;2411;47.060;15.064;2023-07-20T12:45:39;4.20;;;3.10;;
4794;SDS011;2411;47.060;15.064;2023-07-20T12:48:08;3.70;;;3.10;;
4794;SDS011;2411;47.060;15.064;2023-07-20T12:50:35;3.53;;;3.23;;
4794;SDS011;2411;47.060;15.064;2023-07-20T12:53:02;4.00;;;3.20;;
4794;SDS011;2411;47.060;15.064;2023-07-20T12:55:30;3.50;;;3.03;;
4794;SDS011;2411;47.060;15.064;2023-07-20T12:57:58;2.60;;;2.40;;
4794;SDS011;2411;47.060;15.064;2023-07-20T13:00:25;5.60;;;3.10;;
4794;SDS011;2411;47.060;15.064;2023-07-20T13:02:52;3.30;;;2.77;;
4794;SDS011;2411;47.060;15.064;2023-07-20T13:05:35;5.13;;;2.93;;
4794;SDS011;2411;47.060;15.064;2023-07-20T13:08:05;3.40;;;3.10;;
4794;SDS011;2411;47.060;15.064;2023-07-20T13:10:35;3.43;;;3.07;;
4794;SDS011;2411;47.060;15.064;2023-07-20T13:13:02;2.40;;;2.20;;
4794;SDS011;2411;47.060;15.064;2023-07-20T13:15:30;3.37;;;2.90;;
4794;SDS011;2411;47.060;15.064;2023-07-20T13:17:59;3.47;;;2.63;;
4794;SDS011;2411;47.060;15.064;2023-07-20T13:20:27;6.03;;;2.47;;
4794;SDS011;2411;47.060;15.064;2023-07-20T13:22:55;3.17;;;2.53;;
4794;SDS011;2411;47.060;15.064;2023-07-20T13:25:22;2.67;;;2.47;;
4794;SDS011;2411;47.060;15.064;2023-07-20T13:27:49;2.37;;;2.27;;
4794;SDS011;2411;47.060;15.064;2023-07-20T13:30:16;3.73;;;2.20;;
4794;SDS011;2411;47.060;15.064;2023-07-20T13:32:44;2.60;;;2.40;;
4794;SDS011;2411;47.060;15.064;2023-07-20T13:35:11;2.43;;;2.23;;
4794;SDS011;2411;47.060;15.064;2023-07-20T13:37:39;2.50;;;2.30;;
4794;SDS011;2411;47.060;15.064;2023-07-20T13:40:08;4.33;;;3.03;;
4794;SDS011;2411;47.060;15.064;2023-07-20T13:42:40;2.67;;;2.40;;
4794;SDS011;2411;47.060;15.064;2023-07-20T13:45:07;3.07;;;2.63;;
4794;SDS011;2411;47.060;15.064;2023-07-20T13:47:35;2.53;;;2.30;;
4794;SDS011;2411;47.060;15.064;2023-07-20T13:50:04;3.13;;;2.73;;
4794;SDS011;2411;47.060;15.064;2023-07-20T13:52:32;3.10;;;2.53;;
4794;SDS011;2411;47.060;15.064;2023-07-20T13:55:02;2.70;;;2.50;;
4794;SDS011;2411;47.060;15.064;2023-07-20T13:57:31;5.70;;;2.77;;
4794;SDS011;2411;47.060;15.064;2023-07-20T14:00:02;3.17;;;2.87;;
4794;SDS011;2411;47.060;15.064;2023-07-20T14:02:31;4.30;;;2.87;;
4794;SDS011;2411;47.060;15.064;2023-07-20T14:05:01;3.43;;;2.33;;
4794;SDS011;2411;47.060;15.064;2023-07-20T14:07:31;2.60;;;2.40;;
4794;SDS011;2411;47.060;15.064;2023-07-20T14:09:59;3.40;;;2.60;;
4794;SDS011;2411;47.060;15.064;2023-07-20T14:12:29;5.33;;;2.77;;
4794;SDS011;2411;47.060;15.064;2023-07-20T14:14:56;3.27;;;2.97;;
4794;SDS011;2411;47.060;15.064;2023-07-20T14:17:23;3.07;;;2.67;;
4794;SDS011;2411;47.060;15.064;2023-07-20T14:19:52;3.00;;;2.80;;
4794;SDS011;2411;47.060;15.064;2023-07-20T14:22:20;4.23;;;2.73;;
4794;SDS011;2411;47.060;15.064;2023-07-20T14:24:47;3.23;;;2.80;;
4794;SDS011;2411;47.060;15.064;2023-07-20T14:27:15;4.00;;;2.90;;
4794;SDS011;2411;47.060;15.064;2023-07-20T14:29:42;2.90;;;2.60;;
4794;SDS011;2411;47.060;15.064;2023-07-20T14:32:09;3.07;;;2.20;;
4794;SDS011;2411;47.060;15.064;2023-07-20T14:34:37;2.80;;;2.60;;
4794;SDS011;2411;47.060;15.064;2023-07-20T14:37:05;2.63;;;2.43;;
4794;SDS011;2411;47.060;15.064;2023-07-20T14:39:33;3.20;;;2.60;;
4794;SDS011;2411;47.060;15.064;2023-07-20T14:42:00;2.60;;;2.40;;
4794;SDS011;2411;47.060;15.064;2023-07-20T14:44:28;2.70;;;2.50;;
4794;SDS011;2411;47.060;15.064;2023-07-20T14:46:55;2.70;;;2.30;;
4794;SDS011;2411;47.060;15.064;2023-07-20T14:49:38;3.50;;;3.00;;
4794;SDS011;2411;47.060;15.064;2023-07-20T14:52:06;4.57;;;3.07;;
4794;SDS011;2411;47.060;15.064;2023-07-20T14:54:36;2.90;;;2.60;;
4794;SDS011;2411;47.060;15.064;2023-07-20T14:57:03;4.70;;;2.70;;
4794;SDS011;2411;47.060;15.064;2023-07-20T14:59:31;3.03;;;2.67;;
4794;SDS011;2411;47.060;15.064;2023-07-20T15:01:58;3.03;;;2.77;;
4794;SDS011;2411;47.060;15.064;2023-07-20T15:04:25;2.90;;;2.60;;
4794;SDS011;2411;47.060;15.064;2023-07-20T15:06:54;4.00;;;2.83;;
4794;SDS011;2411;47.060;15.064;2023-07-20T15:09:21;4.20;;;3.20;;
4794;SDS011;2411;47.060;15.064;2023-07-20T15:11:48;2.60;;;2.40;;
4794;SDS011;2411;47.060;15.064;2023-07-20T15:14:16;10.00;;;3.13;;
4794;SDS011;2411;47.060;15.064;2023-07-20T15:16:43;3.27;;;2.60;;
4794;SDS011;2411;47.060;15.064;2023-07-20T15:19:14;5.80;;;2.53;;
4794;SDS011;2411;47.060;15.064;2023-07-20T15:21:43;3.20;;;3.00;;
4794;SDS011;2411;47.060;15.064;2023-07-20T15:24:10;3.80;;;3.17;;
4794;SDS011;2411;47.060;15.064;2023-07-20T15:26:38;3.33;;;3.00;;
4794;SDS011;2411;47.060;15.064;2023-07-20T15:29:07;3.10;;;2.40;;
4794;SDS011;2411;47.060;15.064;2023-07-20T15:31:55;4.90;;;2.20;;
4794;SDS011;2411;47.060;15.064;2023-07-20T15:34:25;2.60;;;2.40;;
4794;SDS011;2411;47.060;15.064;2023-07-20T15:36:52;2.80;;;2.50;;